createdAt,value
2023-02-17T00:00:09.106Z,10.83
2023-02-17T00:02:37.656Z,12.27
2023-02-17T00:05:06.892Z,11.53
2023-02-17T00:07:36.380Z,10.27
2023-02-17T00:10:06.859Z,13.57
2023-02-17T00:12:35.293Z,11.10
2023-02-17T00:15:03.713Z,9.97
2023-02-17T00:17:32.040Z,7.93
2023-02-17T00:20:00.304Z,9.23
2023-02-17T00:22:29.010Z,9.00
2023-02-17T00:24:57.346Z,7.97
2023-02-17T00:27:27.056Z,8.00
2023-02-17T00:29:55.348Z,8.17
2023-02-17T00:32:23.693Z,9.07
2023-02-17T00:34:53.328Z,8.73
2023-02-17T00:37:21.584Z,8.57
2023-02-17T00:39:49.960Z,11.50
2023-02-17T00:42:20.568Z,9.10
2023-02-17T00:44:50.221Z,9.20
2023-02-17T00:47:18.517Z,10.23
2023-02-17T00:49:48.895Z,9.67
2023-02-17T00:52:17.144Z,8.73
2023-02-17T00:54:45.392Z,10.00
2023-02-17T00:57:13.649Z,9.40
2023-02-17T00:59:42.130Z,9.43
2023-02-17T01:02:12.178Z,10.43
2023-02-17T01:04:40.524Z,8.40
2023-02-17T01:07:08.852Z,8.83
2023-02-17T01:09:37.181Z,10.27
2023-02-17T01:12:05.566Z,9.60
2023-02-17T01:14:33.875Z,10.97
2023-02-17T01:17:02.133Z,11.43
2023-02-17T01:19:31.808Z,7.87
2023-02-17T01:22:00.143Z,9.23
2023-02-17T01:24:28.570Z,8.73
2023-02-17T01:26:57.275Z,8.57
2023-02-17T01:29:28.936Z,8.70
2023-02-17T01:31:57.352Z,10.63
2023-02-17T01:34:27.779Z,8.63
2023-02-17T01:36:57.522Z,8.33
2023-02-17T01:39:25.814Z,8.37
2023-02-17T01:41:54.122Z,8.00
2023-02-17T01:44:24.337Z,9.27
2023-02-17T01:46:54.049Z,8.10
2023-02-17T01:49:33.569Z,8.30
2023-02-17T01:52:09.522Z,9.17
2023-02-17T01:54:43.843Z,7.40
2023-02-17T01:57:14.420Z,7.20
2023-02-17T01:59:43.027Z,8.60
2023-02-17T02:02:12.128Z,7.40
2023-02-17T02:04:46.258Z,7.23
2023-02-17T02:07:21.205Z,7.30
2023-02-17T02:09:53.551Z,7.93
2023-02-17T02:12:24.537Z,7.40
2023-02-17T02:14:54.312Z,5.57
2023-02-17T02:17:32.809Z,7.43
2023-02-17T02:20:20.312Z,8.27
2023-02-17T02:23:30.065Z,7.53
2023-02-17T02:26:37.083Z,9.60
2023-02-17T02:29:26.301Z,7.07
2023-02-17T02:32:06.477Z,7.30
2023-02-17T02:34:40.169Z,6.67
2023-02-17T02:37:14.089Z,8.53
2023-02-17T02:39:47.571Z,5.53
2023-02-17T02:42:19.504Z,5.80
2023-02-17T02:44:48.517Z,6.20
2023-02-17T02:47:48.306Z,7.07
2023-02-17T02:50:27.893Z,6.80
2023-02-17T02:53:19.679Z,5.80
2023-02-17T02:55:54.552Z,7.23
2023-02-17T02:58:29.040Z,5.30
2023-02-17T03:01:01.985Z,5.87
2023-02-17T03:03:41.159Z,5.33
2023-02-17T03:06:17.934Z,5.47
2023-02-17T03:08:51.496Z,7.63
2023-02-17T03:11:32.348Z,5.13
2023-02-17T03:14:03.579Z,4.83
2023-02-17T03:16:33.854Z,5.37
2023-02-17T03:19:02.210Z,5.50
2023-02-17T03:21:38.825Z,4.13
2023-02-17T03:24:08.351Z,4.47
2023-02-17T03:26:36.699Z,3.00
2023-02-17T03:29:05.287Z,3.83
2023-02-17T03:31:33.938Z,4.43
2023-02-17T03:34:02.297Z,4.53
2023-02-17T03:36:31.900Z,4.60
2023-02-17T03:39:00.120Z,4.13
2023-02-17T03:41:28.338Z,4.00
2023-02-17T03:43:56.825Z,5.70
2023-02-17T03:46:25.274Z,5.80
2023-02-17T03:48:53.587Z,6.40
2023-02-17T03:51:24.214Z,4.63
2023-02-17T03:53:53.989Z,6.97
2023-02-17T03:56:22.270Z,5.77
2023-02-17T03:58:50.519Z,6.43
2023-02-17T04:01:18.932Z,5.70
2023-02-17T04:03:47.279Z,4.73
2023-02-17T04:06:15.546Z,4.97
2023-02-17T04:08:43.768Z,6.27
2023-02-17T04:11:13.340Z,5.97
2023-02-17T04:13:42.005Z,7.00
2023-02-17T04:16:11.913Z,4.67
2023-02-17T04:18:40.446Z,5.13
2023-02-17T04:21:09.419Z,5.70
2023-02-17T04:23:38.645Z,5.33
2023-02-17T04:26:08.665Z,6.17
2023-02-17T04:28:39.316Z,7.27
2023-02-17T04:31:08.355Z,6.17
2023-02-17T04:33:38.009Z,5.20
2023-02-17T04:36:07.385Z,7.83
2023-02-17T04:38:36.430Z,7.37
2023-02-17T04:41:06.253Z,10.17
2023-02-17T04:43:34.850Z,10.23
2023-02-17T04:46:05.042Z,6.67
2023-02-17T04:48:33.708Z,6.47
2023-02-17T04:51:01.987Z,6.90
2023-02-17T04:53:30.216Z,5.47
2023-02-17T04:55:58.476Z,9.73
2023-02-17T04:58:27.050Z,7.23
2023-02-17T05:00:55.276Z,8.03
2023-02-17T05:03:24.910Z,8.97
2023-02-17T05:05:53.116Z,9.43
2023-02-17T05:08:21.396Z,9.07
2023-02-17T05:10:51.408Z,10.40
2023-02-17T05:13:20.039Z,8.60
2023-02-17T05:15:48.787Z,10.10
2023-02-17T05:18:17.140Z,7.10
2023-02-17T05:20:46.734Z,9.13
2023-02-17T05:23:15.018Z,7.43
2023-02-17T05:25:43.299Z,6.90
2023-02-17T05:28:11.536Z,7.70
2023-02-17T05:30:39.972Z,10.57
2023-02-17T05:33:08.247Z,7.80
2023-02-17T05:35:37.269Z,9.70
2023-02-17T05:38:07.051Z,8.03
2023-02-17T05:40:35.374Z,7.67
2023-02-17T05:43:03.574Z,9.27
2023-02-17T05:45:31.784Z,11.60
2023-02-17T05:48:00.013Z,7.80
2023-02-17T05:50:28.382Z,8.93
2023-02-17T05:53:03.979Z,10.37
2023-02-17T05:55:33.876Z,11.27
2023-02-17T05:58:02.274Z,12.30
2023-02-17T06:00:30.639Z,11.03
2023-02-17T06:02:58.897Z,14.83
2023-02-17T06:05:27.172Z,9.70
2023-02-17T06:07:55.390Z,10.13
2023-02-17T06:10:23.678Z,10.90
2023-02-17T06:12:53.296Z,7.87
2023-02-17T06:15:21.574Z,9.80
2023-02-17T06:17:49.778Z,9.13
2023-02-17T06:20:18.483Z,7.17
2023-02-17T06:22:46.677Z,10.53
2023-02-17T06:25:14.957Z,9.87
2023-02-17T06:27:44.188Z,10.63
2023-02-17T06:30:15.511Z,10.60
2023-02-17T06:32:43.747Z,8.97
2023-02-17T06:35:12.048Z,8.10
2023-02-17T06:37:40.313Z,9.90
2023-02-17T06:40:09.399Z,8.27
2023-02-17T06:42:38.309Z,7.47
2023-02-17T06:45:07.295Z,9.97
2023-02-17T06:47:37.203Z,7.77
2023-02-17T06:50:06.085Z,7.20
2023-02-17T06:52:34.413Z,6.03
2023-02-17T06:55:02.689Z,7.53
2023-02-17T06:57:30.903Z,8.70
2023-02-17T06:59:59.169Z,8.33
2023-02-17T07:02:27.451Z,9.30
2023-02-17T07:05:00.164Z,6.77
2023-02-17T07:07:28.623Z,6.47
2023-02-17T07:09:56.865Z,6.30
2023-02-17T07:12:25.108Z,8.30
2023-02-17T07:14:53.343Z,8.40
2023-02-17T07:17:22.415Z,6.17
2023-02-17T07:19:50.721Z,7.20
2023-02-17T07:22:20.371Z,7.03
2023-02-17T07:24:48.633Z,7.03
2023-02-17T07:27:16.955Z,5.77
2023-02-17T07:29:45.331Z,5.93
2023-02-17T07:32:13.625Z,7.90
2023-02-17T07:34:41.872Z,8.87
2023-02-17T07:37:10.098Z,7.60
2023-02-17T07:39:42.754Z,5.80
2023-02-17T07:42:17.130Z,6.33
2023-02-17T07:44:51.318Z,7.23
2023-02-17T07:47:19.779Z,5.77
2023-02-17T07:49:48.010Z,7.07
2023-02-17T07:52:18.912Z,5.27
2023-02-17T07:54:51.275Z,4.83
2023-02-17T07:57:19.543Z,5.73
2023-02-17T07:59:48.320Z,5.20
2023-02-17T08:02:16.974Z,5.07
2023-02-17T08:05:05.679Z,5.03
2023-02-17T08:07:34.009Z,4.23
2023-02-17T08:10:20.943Z,5.33
2023-02-17T08:13:06.625Z,5.60
2023-02-17T08:15:35.643Z,4.33
2023-02-17T08:18:11.923Z,3.93
2023-02-17T08:20:40.213Z,3.60
2023-02-17T08:23:10.871Z,3.23
2023-02-17T08:25:43.292Z,3.43
2023-02-17T08:28:13.370Z,3.70
2023-02-17T08:30:44.659Z,3.43
2023-02-17T08:33:18.765Z,2.83
2023-02-17T08:35:52.283Z,4.37
2023-02-17T08:38:20.734Z,2.57
2023-02-17T08:40:50.389Z,2.60
2023-02-17T08:43:18.623Z,2.90
2023-02-17T08:45:46.965Z,2.87
2023-02-17T08:48:17.523Z,2.90
2023-02-17T08:50:48.567Z,2.33
2023-02-17T08:53:16.914Z,1.93
2023-02-17T08:55:49.460Z,2.60
2023-02-17T08:58:24.787Z,2.70
2023-02-17T09:00:55.408Z,3.80
2023-02-17T09:03:26.860Z,2.10
2023-02-17T09:05:55.952Z,4.23
2023-02-17T09:08:31.996Z,4.07
2023-02-17T09:11:00.647Z,2.60
2023-02-17T09:13:32.902Z,3.87
2023-02-17T09:16:01.265Z,2.87
2023-02-17T09:18:29.931Z,2.57
2023-02-17T09:21:01.020Z,2.60
2023-02-17T09:23:35.151Z,3.67
2023-02-17T09:26:20.264Z,2.53
2023-02-17T09:29:08.386Z,3.87
2023-02-17T09:31:37.984Z,3.23
2023-02-17T09:34:09.324Z,2.50
2023-02-17T09:36:45.767Z,5.23
2023-02-17T09:39:14.965Z,2.80
2023-02-17T09:41:47.266Z,2.77
2023-02-17T09:44:23.486Z,3.03
2023-02-17T09:47:03.673Z,4.23
2023-02-17T09:49:38.539Z,3.17
2023-02-17T09:52:13.336Z,3.33
2023-02-17T09:54:50.797Z,4.10
2023-02-17T09:57:22.886Z,4.13
2023-02-17T09:59:57.431Z,3.07
2023-02-17T10:02:33.458Z,5.93
2023-02-17T10:05:06.246Z,3.47
2023-02-17T10:07:39.998Z,2.90
2023-02-17T10:10:12.657Z,5.40
2023-02-17T10:12:47.198Z,2.60
2023-02-17T10:15:20.836Z,2.80
2023-02-17T10:17:54.761Z,3.30
2023-02-17T10:20:26.947Z,3.10
2023-02-17T10:23:01.193Z,3.10
2023-02-17T10:25:48.309Z,3.50
2023-02-17T10:28:22.809Z,3.13
2023-02-17T10:30:57.655Z,2.97
2023-02-17T10:33:32.584Z,2.00
2023-02-17T10:36:12.236Z,2.70
2023-02-17T10:38:51.068Z,2.50
2023-02-17T10:41:23.995Z,1.90
2023-02-17T10:43:52.759Z,1.80
2023-02-17T10:46:29.865Z,2.70
2023-02-17T10:48:59.828Z,3.53
2023-02-17T10:51:29.595Z,3.87
2023-02-17T10:54:02.402Z,1.80
2023-02-17T10:56:36.703Z,2.07
2023-02-17T10:59:09.082Z,2.10
2023-02-17T11:01:38.915Z,2.10
2023-02-17T11:04:10.635Z,3.20
2023-02-17T11:06:45.415Z,1.77
2023-02-17T11:09:23.382Z,4.73
2023-02-17T11:11:58.661Z,2.93
2023-02-17T11:14:29.779Z,4.20
2023-02-17T11:17:01.681Z,2.57
2023-02-17T11:19:34.012Z,2.30
2023-02-17T11:22:04.550Z,3.13
2023-02-17T11:24:43.630Z,3.87
2023-02-17T11:27:13.461Z,3.33
2023-02-17T11:29:51.753Z,2.20
2023-02-17T11:32:32.480Z,2.53
2023-02-17T11:35:04.892Z,3.20
2023-02-17T11:37:34.778Z,4.53
2023-02-17T11:40:26.347Z,4.43
2023-02-17T11:42:58.810Z,3.67
2023-02-17T11:46:14.481Z,3.73
2023-02-17T11:49:08.883Z,3.77
2023-02-17T11:51:52.146Z,3.27
2023-02-17T11:54:59.140Z,3.63
2023-02-17T11:57:37.766Z,3.67
2023-02-17T12:00:16.262Z,2.87
2023-02-17T12:03:35.776Z,3.60
2023-02-17T12:06:14.524Z,3.77
2023-02-17T12:09:04.999Z,3.13
2023-02-17T12:11:59.244Z,4.33
2023-02-17T12:14:45.426Z,5.20
2023-02-17T12:17:31.281Z,3.80
2023-02-17T12:20:40.704Z,3.57
2023-02-17T12:23:35.324Z,2.63
2023-02-17T12:26:12.645Z,3.20
2023-02-17T12:28:56.829Z,3.77
2023-02-17T12:31:48.450Z,3.20
2023-02-17T12:34:25.675Z,2.77
2023-02-17T12:37:19.103Z,3.57
2023-02-17T12:39:53.341Z,2.33
2023-02-17T12:42:25.433Z,3.67
2023-02-17T12:44:57.920Z,2.50
2023-02-17T12:47:33.275Z,2.80
2023-02-17T12:50:07.747Z,2.83
2023-02-17T12:52:41.664Z,2.57
2023-02-17T12:55:20.912Z,2.53
2023-02-17T12:58:17.073Z,2.10
2023-02-17T13:00:50.481Z,2.70
2023-02-17T13:03:19.201Z,3.63
2023-02-17T13:05:53.217Z,6.73
2023-02-17T13:08:26.606Z,2.77
2023-02-17T13:11:13.378Z,3.27
2023-02-17T13:13:57.471Z,3.37
2023-02-17T13:16:25.884Z,3.77
2023-02-17T13:18:54.134Z,4.23
2023-02-17T13:21:34.504Z,2.97
2023-02-17T13:24:04.857Z,2.97
2023-02-17T13:26:36.587Z,4.27
2023-02-17T13:29:21.968Z,3.60
2023-02-17T13:31:53.557Z,3.07
2023-02-17T13:34:33.647Z,3.50
2023-02-17T13:37:05.627Z,3.63
2023-02-17T13:39:38.761Z,3.17
2023-02-17T13:42:34.183Z,2.93
2023-02-17T13:45:03.177Z,3.53
2023-02-17T13:47:37.931Z,2.97
2023-02-17T13:50:07.987Z,3.63
2023-02-17T13:52:38.758Z,5.13
2023-02-17T13:55:33.443Z,3.57
2023-02-17T13:58:12.306Z,5.77
2023-02-17T14:00:45.079Z,4.50
2023-02-17T14:03:21.487Z,5.13
2023-02-17T14:05:51.777Z,4.20
2023-02-17T14:08:33.740Z,6.37
2023-02-17T14:11:08.337Z,5.03
2023-02-17T14:13:39.623Z,4.97
2023-02-17T14:16:09.203Z,4.73
2023-02-17T14:18:42.812Z,5.73
2023-02-17T14:21:13.232Z,5.23
2023-02-17T14:23:43.580Z,4.33
2023-02-17T14:26:27.238Z,4.03
2023-02-17T14:28:58.805Z,5.30
2023-02-17T14:31:27.809Z,5.40
2023-02-17T14:33:59.408Z,5.30
2023-02-17T14:36:34.975Z,2.10
2023-02-17T14:39:05.653Z,3.23
2023-02-17T14:41:33.967Z,4.23
2023-02-17T14:44:03.594Z,1.97
2023-02-17T14:46:31.827Z,3.67
2023-02-17T14:49:07.216Z,4.30
2023-02-17T14:51:37.961Z,3.00
2023-02-17T14:54:15.021Z,3.23
2023-02-17T14:56:47.623Z,5.47
2023-02-17T14:59:17.236Z,2.50
2023-02-17T15:01:45.553Z,2.93
2023-02-17T15:04:13.883Z,3.50
2023-02-17T15:06:44.316Z,3.13
2023-02-17T15:09:14.800Z,5.60
2023-02-17T15:11:45.733Z,3.17
2023-02-17T15:14:15.808Z,5.47
2023-02-17T15:16:46.094Z,3.67
2023-02-17T15:19:17.970Z,4.57
2023-02-17T15:21:49.017Z,4.73
2023-02-17T15:24:20.049Z,7.43
2023-02-17T15:26:48.903Z,4.10
2023-02-17T15:29:19.306Z,4.63
2023-02-17T15:31:50.373Z,4.23
2023-02-17T15:34:20.625Z,5.73
2023-02-17T15:36:49.043Z,6.37
2023-02-17T15:39:19.333Z,5.57
2023-02-17T15:41:48.779Z,4.07
2023-02-17T15:44:18.774Z,4.73
2023-02-17T15:46:50.907Z,8.87
2023-02-17T15:49:19.222Z,5.37
2023-02-17T15:51:47.491Z,5.93
2023-02-17T15:54:19.182Z,7.10
2023-02-17T15:56:50.304Z,5.20
2023-02-17T15:59:22.146Z,5.90
2023-02-17T16:01:51.899Z,4.93
2023-02-17T16:04:20.244Z,4.20
2023-02-17T16:06:48.589Z,3.93
2023-02-17T16:09:16.824Z,6.17
2023-02-17T16:11:50.288Z,8.43
2023-02-17T16:14:40.351Z,4.20
2023-02-17T16:17:30.462Z,3.80
2023-02-17T16:20:05.047Z,4.10
2023-02-17T16:22:34.058Z,6.53
2023-02-17T16:25:02.519Z,8.80
2023-02-17T16:27:30.972Z,8.57
2023-02-17T16:30:03.523Z,4.87
2023-02-17T16:32:37.691Z,6.50
2023-02-17T16:35:27.419Z,4.40
2023-02-17T16:37:57.942Z,7.60
2023-02-17T16:40:29.552Z,7.47
2023-02-17T16:42:58.268Z,5.97
2023-02-17T16:45:28.772Z,5.87
2023-02-17T16:48:00.616Z,7.27
2023-02-17T16:50:32.188Z,8.93
2023-02-17T16:53:08.989Z,9.43
2023-02-17T16:55:38.167Z,8.13
2023-02-17T16:58:14.937Z,9.20
2023-02-17T17:00:43.424Z,6.17
2023-02-17T17:03:13.260Z,9.07
2023-02-17T17:05:45.499Z,6.17
2023-02-17T17:08:18.284Z,6.90
2023-02-17T17:10:50.446Z,9.20
2023-02-17T17:13:21.650Z,7.00
2023-02-17T17:15:50.249Z,11.20
2023-02-17T17:18:24.114Z,8.73
2023-02-17T17:20:55.115Z,11.40
2023-02-17T17:23:30.604Z,10.07
2023-02-17T17:25:58.923Z,8.53
2023-02-17T17:28:38.742Z,7.10
2023-02-17T17:31:07.003Z,7.53
2023-02-17T17:33:36.794Z,11.57
2023-02-17T17:36:12.990Z,6.47
2023-02-17T17:38:41.858Z,9.37
2023-02-17T17:41:14.015Z,7.93
2023-02-17T17:44:01.418Z,9.30
2023-02-17T17:46:32.037Z,9.00
2023-02-17T17:49:19.489Z,6.97
2023-02-17T17:51:47.742Z,9.77
2023-02-17T17:54:16.074Z,9.73
2023-02-17T17:56:44.934Z,5.83
2023-02-17T17:59:14.358Z,13.40
2023-02-17T18:01:46.055Z,8.83
2023-02-17T18:04:17.331Z,7.97
2023-02-17T18:06:54.938Z,7.10
2023-02-17T18:09:32.285Z,9.20
2023-02-17T18:12:03.471Z,8.10
2023-02-17T18:14:33.014Z,8.83
2023-02-17T18:17:04.473Z,10.53
2023-02-17T18:19:33.400Z,9.70
2023-02-17T18:22:05.260Z,8.50
2023-02-17T18:24:33.877Z,11.70
2023-02-17T18:27:04.591Z,7.70
2023-02-17T18:29:45.072Z,11.27
2023-02-17T18:32:16.194Z,8.63
2023-02-17T18:34:44.451Z,9.27
2023-02-17T18:37:14.118Z,8.83
2023-02-17T18:39:48.085Z,11.07
2023-02-17T18:42:34.068Z,10.30
2023-02-17T18:45:02.453Z,9.97
2023-02-17T18:47:31.729Z,8.70
2023-02-17T18:50:00.013Z,12.10
2023-02-17T18:52:29.639Z,9.57
2023-02-17T18:55:05.876Z,12.50
2023-02-17T18:57:39.906Z,9.53
2023-02-17T19:00:13.071Z,9.10
2023-02-17T19:02:42.228Z,13.03
2023-02-17T19:05:11.605Z,9.37
2023-02-17T19:07:51.319Z,10.50
2023-02-17T19:10:19.923Z,13.57
2023-02-17T19:12:50.324Z,10.00
2023-02-17T19:15:20.964Z,10.50
2023-02-17T19:17:58.582Z,11.27
2023-02-17T19:20:29.830Z,10.03
2023-02-17T19:22:59.764Z,9.90
2023-02-17T19:25:34.085Z,12.27
2023-02-17T19:28:02.323Z,12.60
2023-02-17T19:30:32.754Z,10.07
2023-02-17T19:33:01.006Z,13.47
2023-02-17T19:35:29.246Z,12.47
2023-02-17T19:37:58.861Z,12.10
2023-02-17T19:40:27.109Z,11.03
2023-02-17T19:42:55.691Z,11.87
2023-02-17T19:45:23.912Z,13.37
2023-02-17T19:47:52.195Z,14.00
2023-02-17T19:50:20.698Z,13.43
2023-02-17T19:52:49.030Z,13.90
2023-02-17T19:55:19.867Z,14.53
2023-02-17T19:57:50.634Z,13.20
2023-02-17T20:00:19.556Z,13.30
2023-02-17T20:02:47.907Z,12.10
2023-02-17T20:05:16.471Z,14.23
2023-02-17T20:07:50.289Z,12.57
2023-02-17T20:10:22.773Z,11.50
2023-02-17T20:12:56.719Z,11.83
2023-02-17T20:15:25.027Z,14.37
2023-02-17T20:17:58.641Z,15.50
2023-02-17T20:20:26.944Z,14.30
2023-02-17T20:23:04.003Z,16.33
2023-02-17T20:25:33.700Z,14.47
2023-02-17T20:28:04.171Z,13.87
2023-02-17T20:30:32.418Z,13.20
2023-02-17T20:33:00.739Z,14.30
2023-02-17T20:35:28.959Z,15.60
2023-02-17T20:37:57.494Z,16.90
2023-02-17T20:40:28.063Z,21.87
2023-02-17T20:42:58.150Z,16.17
2023-02-17T20:45:26.520Z,15.33
2023-02-17T20:48:30.336Z,16.97
2023-02-17T20:50:59.422Z,18.70
2023-02-17T20:53:28.021Z,16.23
2023-02-17T20:55:57.037Z,16.03
2023-02-17T20:58:26.654Z,15.30
2023-02-17T21:00:54.954Z,18.37
2023-02-17T21:03:23.218Z,16.90
2023-02-17T21:05:53.807Z,16.43
2023-02-17T21:08:27.325Z,16.47
2023-02-17T21:10:55.573Z,17.33
2023-02-17T21:13:23.909Z,19.73
2023-02-17T21:16:13.744Z,15.40
2023-02-17T21:18:46.997Z,14.30
2023-02-17T21:21:41.869Z,16.93
2023-02-17T21:24:10.243Z,14.00
2023-02-17T21:26:39.599Z,15.33
2023-02-17T21:29:14.019Z,18.20
2023-02-17T21:31:44.038Z,15.63
2023-02-17T21:34:12.421Z,15.47
2023-02-17T21:36:40.665Z,18.63
2023-02-17T21:39:08.894Z,14.20
2023-02-17T21:41:37.302Z,15.63
2023-02-17T21:44:22.826Z,17.30
2023-02-17T21:46:53.759Z,19.67
2023-02-17T21:49:22.020Z,15.10
2023-02-17T21:51:50.913Z,19.80
2023-02-17T21:54:19.169Z,18.47
2023-02-17T21:56:47.715Z,18.83
2023-02-17T21:59:15.981Z,14.43
2023-02-17T22:01:44.213Z,18.67
2023-02-17T22:04:13.832Z,18.20
2023-02-17T22:06:43.044Z,20.07
2023-02-17T22:09:14.553Z,20.37
2023-02-17T22:11:44.128Z,15.87
2023-02-17T22:14:15.621Z,19.37
2023-02-17T22:16:45.097Z,17.03
2023-02-17T22:19:17.709Z,20.07
2023-02-17T22:21:46.733Z,20.33
2023-02-17T22:24:15.576Z,21.37
2023-02-17T22:26:44.077Z,16.93
2023-02-17T22:29:12.394Z,24.83
2023-02-17T22:31:41.231Z,22.77
2023-02-17T22:34:11.001Z,18.97
2023-02-17T22:36:41.235Z,19.33
2023-02-17T22:39:11.884Z,24.27
2023-02-17T22:41:40.849Z,21.13
2023-02-17T22:44:19.640Z,19.40
2023-02-17T22:46:47.877Z,19.67
2023-02-17T22:49:18.791Z,20.90
2023-02-17T22:51:48.459Z,20.97
2023-02-17T22:54:16.723Z,22.40
2023-02-17T22:56:45.109Z,22.40
2023-02-17T22:59:13.393Z,23.80
2023-02-17T23:01:41.620Z,20.90
2023-02-17T23:04:13.838Z,19.63
2023-02-17T23:06:52.130Z,21.70
2023-02-17T23:09:20.890Z,22.10
2023-02-17T23:11:53.941Z,25.90
2023-02-17T23:14:33.781Z,24.63
2023-02-17T23:17:09.940Z,22.07
2023-02-17T23:19:40.888Z,22.83
2023-02-17T23:22:15.899Z,24.73
2023-02-17T23:24:44.656Z,22.90
2023-02-17T23:27:33.420Z,26.17
2023-02-17T23:30:01.675Z,27.10
2023-02-17T23:32:29.967Z,23.97
2023-02-17T23:34:58.813Z,22.83
2023-02-17T23:37:28.507Z,23.90
2023-02-17T23:39:59.906Z,21.23
2023-02-17T23:42:28.261Z,22.63
2023-02-17T23:44:56.493Z,24.03
2023-02-17T23:47:24.913Z,24.80
2023-02-17T23:49:53.554Z,22.87
2023-02-17T23:52:21.835Z,22.30
2023-02-17T23:54:54.505Z,22.77
2023-02-17T23:57:22.814Z,23.40
2023-02-17T23:59:51.051Z,24.50
